Time;durP1;ratioP1;P1;durP2;ratioP2;P2;SDS_P1;SDS_P2;PMS_P1;PMS_P2;Temp;Humidity;BMP_temperature;BMP_pressure;BME280_temperature;BME280_humidity;BME280_pressure;Samples;Min_cycle;Max_cycle;Signal;HPM_P1;HPM_P2
2021/08/04 00:00:08;;;;;;;3.73;3.30;;;15.20;99.90;;;;;;4975345;28;20207;-68
2021/08/04 00:02:34;;;;;;;3.20;2.93;;;15.10;99.90;;;;;;4975315;28;20175;-68
2021/08/04 00:04:59;;;;;;;2.80;2.60;;;15.10;99.90;;;;;;4975227;28;20773;-68
2021/08/04 00:07:25;;;;;;;4.40;3.07;;;15.10;99.90;;;;;;4975300;28;20172;-68
2021/08/04 00:09:50;;;;;;;3.97;3.57;;;15.10;99.90;;;;;;4974731;28;20703;-68
2021/08/04 00:12:16;;;;;;;4.83;2.83;;;15.10;99.90;;;;;;4975157;28;20184;-68
2021/08/04 00:14:42;;;;;;;3.60;3.30;;;15.20;99.90;;;;;;4975133;28;20210;-68
2021/08/04 00:17:07;;;;;;;3.40;2.67;;;15.20;99.90;;;;;;4974960;28;20640;-68
2021/08/04 00:19:33;;;;;;;3.90;3.03;;;15.20;99.90;;;;;;4974859;28;20187;-68
2021/08/04 00:21:59;;;;;;;2.50;2.30;;;15.20;99.90;;;;;;4974871;28;20661;-68
2021/08/04 00:24:24;;;;;;;2.60;2.40;;;15.20;99.90;;;;;;4975098;28;20423;-68
2021/08/04 00:26:50;;;;;;;3.33;3.07;;;15.20;99.90;;;;;;4974906;28;20199;-68
2021/08/04 00:29:15;;;;;;;3.00;2.80;;;15.30;99.90;;;;;;4974567;28;20684;-68
2021/08/04 00:31:41;;;;;;;2.90;2.70;;;15.30;99.90;;;;;;4974578;28;20308;-69
2021/08/04 00:34:06;;;;;;;3.97;3.57;;;15.30;99.90;;;;;;4957360;28;20181;-68
2021/08/04 00:36:32;;;;;;;3.93;3.03;;;15.40;99.90;;;;;;4974693;28;20212;-68
2021/08/04 00:38:58;;;;;;;2.70;2.43;;;15.40;99.90;;;;;;4974293;28;20618;-69
2021/08/04 00:41:24;;;;;;;3.57;3.27;;;15.40;99.90;;;;;;4974495;28;20622;-69
2021/08/04 00:43:49;;;;;;;3.07;2.80;;;15.40;99.90;;;;;;4974311;28;20424;-68
2021/08/04 00:46:15;;;;;;;4.07;3.63;;;15.30;99.90;;;;;;4974412;28;20416;-68
2021/08/04 00:48:42;;;;;;;2.40;2.27;;;15.40;99.90;;;;;;4974071;28;20589;-69
2021/08/04 00:51:08;;;;;;;2.47;2.27;;;15.40;99.90;;;;;;4974508;28;20196;-68
2021/08/04 00:53:34;;;;;;;3.30;2.83;;;15.30;99.90;;;;;;4974368;28;20486;-68
2021/08/04 00:56:00;;;;;;;3.60;3.30;;;15.30;99.90;;;;;;4974326;28;20168;-68
2021/08/04 00:58:32;;;;;;;2.83;2.20;;;15.30;99.90;;;;;;4973865;28;20430;-69
2021/08/04 01:01:20;;;;;;;3.40;2.57;;;15.40;99.90;;;;;;4974076;28;20499;-69
2021/08/04 01:03:50;;;;;;;3.60;2.63;;;15.30;99.90;;;;;;4974237;28;20451;-69
2021/08/04 01:06:43;;;;;;;3.60;3.10;;;15.30;99.90;;;;;;4974158;28;20411;-68
2021/08/04 01:09:11;;;;;;;2.83;2.63;;;15.30;99.90;;;;;;4973704;28;20785;-68
2021/08/04 01:11:40;;;;;;;3.17;2.87;;;15.30;99.90;;;;;;4973824;28;20956;-69
2021/08/04 01:14:11;;;;;;;3.43;3.03;;;15.30;99.90;;;;;;4956668;28;20427;-68
2021/08/04 01:16:40;;;;;;;2.80;2.60;;;15.30;99.90;;;;;;4973974;28;20416;-69
2021/08/04 01:19:14;;;;;;;3.63;3.33;;;15.30;99.90;;;;;;4956214;28;20431;-68
2021/08/04 01:21:52;;;;;;;4.10;2.87;;;15.30;99.90;;;;;;4973663;28;20472;-68
2021/08/04 01:24:40;;;;;;;3.43;3.13;;;15.20;99.90;;;;;;4973783;28;20423;-68
2021/08/04 01:27:12;;;;;;;4.10;2.70;;;15.30;99.90;;;;;;4973755;28;20519;-68
2021/08/04 01:29:37;;;;;;;2.70;2.50;;;15.30;99.90;;;;;;4973447;28;20416;-68
2021/08/04 01:32:05;;;;;;;3.13;2.83;;;15.30;99.90;;;;;;4973928;28;20442;-68
2021/08/04 01:34:35;;;;;;;3.07;2.80;;;15.30;99.90;;;;;;4973628;28;20164;-68
2021/08/04 01:37:02;;;;;;;3.10;2.47;;;15.20;99.90;;;;;;4973671;28;20427;-68
2021/08/04 01:39:29;;;;;;;2.73;2.57;;;15.20;99.90;;;;;;4973347;28;20423;-68
2021/08/04 01:41:56;;;;;;;3.03;2.73;;;15.20;99.90;;;;;;4973375;28;20471;-68
2021/08/04 01:44:22;;;;;;;2.93;2.73;;;15.30;99.90;;;;;;4973959;28;20783;-68
2021/08/04 01:46:48;;;;;;;3.13;2.93;;;15.30;99.90;;;;;;4973426;28;20419;-68
2021/08/04 01:49:15;;;;;;;3.40;3.20;;;15.30;99.90;;;;;;4973059;28;20857;-68
2021/08/04 01:51:42;;;;;;;2.67;2.47;;;15.20;99.90;;;;;;4973315;28;20539;-68
2021/08/04 01:54:09;;;;;;;3.00;2.80;;;15.20;99.90;;;;;;4973240;28;20415;-68
2021/08/04 01:56:34;;;;;;;3.87;2.60;;;15.20;99.90;;;;;;4972840;28;20864;-68
2021/08/04 01:59:01;;;;;;;3.10;2.37;;;15.20;99.90;;;;;;4972876;28;20494;-68
2021/08/04 02:01:26;;;;;;;3.50;2.53;;;15.20;99.90;;;;;;4973425;28;20315;-68
2021/08/04 02:03:53;;;;;;;7.87;3.40;;;15.20;99.90;;;;;;4973251;28;20499;-68
2021/08/04 02:06:49;;;;;;;3.30;3.00;;;15.20;99.90;;;;;;4973384;28;20726;-68
2021/08/04 02:09:22;;;;;;;3.03;2.77;;;15.30;99.90;;;;;;4973202;28;20941;-68
2021/08/04 02:11:51;;;;;;;2.63;2.43;;;15.20;99.90;;;;;;4973072;28;20825;-68
2021/08/04 02:14:34;;;;;;;4.40;2.50;;;15.30;99.90;;;;;;4973080;28;20422;-68
2021/08/04 02:17:07;;;;;;;3.57;2.90;;;15.40;99.90;;;;;;4973197;28;20421;-68
2021/08/04 02:19:55;;;;;;;3.00;2.57;;;15.30;99.90;;;;;;4972746;28;20416;-68
2021/08/04 02:22:32;;;;;;;3.13;2.67;;;15.40;99.90;;;;;;4973225;28;20420;-68
2021/08/04 02:25:14;;;;;;;3.50;3.20;;;15.40;99.90;;;;;;4972992;28;20415;-68
2021/08/04 02:27:42;;;;;;;2.73;2.53;;;15.50;99.90;;;;;;4973114;28;20770;-68
2021/08/04 02:30:10;;;;;;;3.87;2.53;;;15.50;99.90;;;;;;4972614;28;20448;-68
2021/08/04 02:32:37;;;;;;;6.57;2.50;;;15.50;99.90;;;;;;4972896;28;20476;-68
2021/08/04 02:35:04;;;;;;;3.40;3.10;;;15.50;99.90;;;;;;4972945;28;20419;-68
2021/08/04 02:37:29;;;;;;;2.87;2.50;;;15.50;99.90;;;;;;4972960;28;20419;-69
2021/08/04 02:39:55;;;;;;;2.57;2.37;;;15.40;99.90;;;;;;4972593;28;20454;-68
2021/08/04 02:42:21;;;;;;;4.47;2.90;;;15.50;99.90;;;;;;4973100;28;20176;-68
2021/08/04 02:44:47;;;;;;;5.50;2.67;;;15.30;99.90;;;;;;4972935;28;20231;-68
2021/08/04 02:47:12;;;;;;;3.10;2.80;;;15.30;99.90;;;;;;4955574;28;20423;-68
2021/08/04 02:49:39;;;;;;;2.73;2.53;;;15.20;99.90;;;;;;4972484;28;20247;-69
2021/08/04 02:52:05;;;;;;;2.93;2.67;;;15.20;99.90;;;;;;4972726;28;20189;-69
2021/08/04 02:54:31;;;;;;;4.07;2.60;;;15.20;99.90;;;;;;4972668;28;20412;-69
2021/08/04 02:56:56;;;;;;;3.20;2.90;;;15.20;99.90;;;;;;4972612;28;20929;-67
2021/08/04 02:59:22;;;;;;;2.90;2.70;;;15.20;99.90;;;;;;4972416;28;20179;-68
2021/08/04 03:01:47;;;;;;;3.37;2.67;;;15.20;99.90;;;;;;4972584;28;20210;-68
2021/08/04 03:04:13;;;;;;;9.40;3.33;;;15.10;99.90;;;;;;4972619;28;20177;-68
2021/08/04 03:06:38;;;;;;;4.93;2.93;;;15.00;99.90;;;;;;4974099;28;20227;-68
2021/08/04 03:09:04;;;;;;;2.67;2.47;;;15.00;99.90;;;;;;4976056;28;20200;-68
2021/08/04 03:11:30;;;;;;;2.87;2.67;;;15.00;99.90;;;;;;4976032;28;20214;-68
2021/08/04 03:13:55;;;;;;;3.80;2.83;;;14.90;99.90;;;;;;4976613;28;20670;-68
2021/08/04 03:16:22;;;;;;;2.80;2.60;;;14.90;99.90;;;;;;4976034;28;20643;-69
2021/08/04 03:18:47;;;;;;;4.50;2.90;;;14.90;99.90;;;;;;4976139;28;20169;-69
2021/08/04 03:21:13;;;;;;;3.23;2.93;;;14.90;99.90;;;;;;4975889;28;20510;-69
2021/08/04 03:23:38;;;;;;;2.97;2.77;;;14.80;99.90;;;;;;4976102;28;20268;-68
2021/08/04 03:26:04;;;;;;;3.03;2.30;;;14.80;99.90;;;;;;4958625;28;20263;-68
2021/08/04 03:28:29;;;;;;;3.77;3.17;;;14.80;99.90;;;;;;4975688;28;20544;-68
2021/08/04 03:30:55;;;;;;;3.47;2.43;;;14.70;99.90;;;;;;4975678;28;20211;-68
2021/08/04 03:33:20;;;;;;;3.07;2.87;;;14.80;99.90;;;;;;4958538;28;20235;-67
2021/08/04 03:35:46;;;;;;;3.73;3.43;;;14.80;99.90;;;;;;4975719;28;20180;-68
2021/08/04 03:38:11;;;;;;;5.93;2.93;;;14.90;99.90;;;;;;4975780;28;20776;-68
2021/08/04 03:40:37;;;;;;;4.70;2.60;;;15.00;99.90;;;;;;4975479;28;20682;-68
2021/08/04 03:43:02;;;;;;;4.03;3.10;;;15.10;99.90;;;;;;4975661;28;20252;-68
2021/08/04 03:45:28;;;;;;;3.33;3.03;;;15.10;99.90;;;;;;4975574;28;20169;-68
2021/08/04 03:47:53;;;;;;;3.03;2.70;;;15.10;99.90;;;;;;4975671;28;20175;-68
2021/08/04 03:50:19;;;;;;;4.00;2.57;;;15.20;99.90;;;;;;4975108;28;20669;-67
2021/08/04 03:52:45;;;;;;;3.60;3.10;;;15.20;99.90;;;;;;4975575;28;20289;-68
2021/08/04 03:55:12;;;;;;;3.30;3.00;;;15.30;99.90;;;;;;4975640;28;20634;-68
2021/08/04 03:57:38;;;;;;;3.63;3.20;;;15.30;99.90;;;;;;4975270;28;20168;-68
2021/08/04 04:00:05;;;;;;;3.80;3.40;;;15.30;99.90;;;;;;4974938;28;20816;-68
2021/08/04 04:02:30;;;;;;;5.73;3.40;;;15.30;99.90;;;;;;4975302;28;20168;-68
2021/08/04 04:04:56;;;;;;;3.73;3.40;;;15.30;99.90;;;;;;4975302;28;20418;-68
2021/08/04 04:07:22;;;;;;;3.93;2.83;;;15.40;99.90;;;;;;4975400;28;20231;-67
2021/08/04 04:09:47;;;;;;;3.70;2.70;;;15.40;99.90;;;;;;4974770;28;20168;-68
2021/08/04 04:12:13;;;;;;;2.77;2.57;;;15.40;99.90;;;;;;4975631;28;20844;-69
2021/08/04 04:14:38;;;;;;;6.03;3.30;;;15.40;99.90;;;;;;4975108;28;20172;-69
2021/08/04 04:17:04;;;;;;;3.23;2.93;;;15.30;99.90;;;;;;4975063;28;20176;-69
2021/08/04 04:19:29;;;;;;;3.90;3.60;;;15.30;99.90;;;;;;4974170;28;20181;-69
2021/08/04 04:21:55;;;;;;;5.20;3.60;;;15.20;99.90;;;;;;4974857;28;20226;-69
2021/08/04 04:24:20;;;;;;;4.67;4.27;;;15.10;99.90;;;;;;4974874;28;20204;-69
2021/08/04 04:26:46;;;;;;;4.40;4.00;;;15.20;99.90;;;;;;4974827;28;20259;-69
2021/08/04 04:29:11;;;;;;;3.60;3.00;;;15.30;99.90;;;;;;4974511;28;20179;-69
2021/08/04 04:31:37;;;;;;;5.23;2.80;;;15.30;99.90;;;;;;4974718;28;20214;-69
2021/08/04 04:34:03;;;;;;;2.97;2.73;;;15.40;99.90;;;;;;4974750;28;20180;-69
2021/08/04 04:36:29;;;;;;;3.03;2.80;;;15.40;99.90;;;;;;4974695;28;20176;-69
2021/08/04 04:38:54;;;;;;;6.30;3.27;;;15.50;99.90;;;;;;4974405;28;20838;-69
2021/08/04 04:41:20;;;;;;;3.30;3.10;;;15.50;99.90;;;;;;4974449;28;20745;-69
2021/08/04 04:43:45;;;;;;;2.80;2.60;;;15.50;99.90;;;;;;4974550;28;20497;-69
2021/08/04 04:46:11;;;;;;;3.20;2.90;;;15.50;99.90;;;;;;4974604;28;20256;-69
2021/08/04 04:48:37;;;;;;;3.57;3.00;;;15.50;99.90;;;;;;4974432;28;20548;-69
2021/08/04 04:51:02;;;;;;;2.90;2.60;;;15.50;99.90;;;;;;4974407;28;20192;-69
2021/08/04 04:53:28;;;;;;;7.13;3.07;;;15.50;99.90;;;;;;4974434;28;20327;-69
2021/08/04 04:55:54;;;;;;;5.10;4.60;;;15.50;99.90;;;;;;4974454;28;20291;-69
2021/08/04 04:58:20;;;;;;;3.80;3.50;;;15.60;99.90;;;;;;4957430;28;20173;-69
2021/08/04 05:00:45;;;;;;;5.93;3.03;;;15.70;99.90;;;;;;4954681;28;20812;-69
2021/08/04 05:03:11;;;;;;;3.37;3.07;;;15.80;99.90;;;;;;4954995;29;20175;-69
2021/08/04 05:05:36;;;;;;;8.07;3.10;;;15.90;99.90;;;;;;4954892;29;20173;-69
2021/08/04 05:08:02;;;;;;;3.50;3.20;;;15.80;99.90;;;;;;4954743;29;20173;-69
2021/08/04 05:10:27;;;;;;;4.07;3.77;;;15.70;99.90;;;;;;4954408;28;20212;-69
2021/08/04 05:12:53;;;;;;;3.70;3.17;;;15.80;99.90;;;;;;4962952;28;20231;-69
2021/08/04 05:15:19;;;;;;;6.20;3.20;;;15.80;99.90;;;;;;4957963;28;20574;-69
2021/08/04 05:17:44;;;;;;;5.93;3.83;;;15.90;99.90;;;;;;4957597;28;20176;-69
2021/08/04 05:20:10;;;;;;;4.07;3.27;;;16.00;99.90;;;;;;4973479;28;20279;-69
2021/08/04 05:22:36;;;;;;;3.33;3.13;;;16.00;99.90;;;;;;4973255;28;20184;-69
2021/08/04 05:25:02;;;;;;;6.50;3.10;;;16.10;99.90;;;;;;4973509;28;20435;-69
2021/08/04 05:27:27;;;;;;;3.57;3.17;;;16.10;99.90;;;;;;4956526;28;20179;-69
2021/08/04 05:29:53;;;;;;;6.00;3.70;;;16.00;99.90;;;;;;4972387;28;20424;-69
2021/08/04 05:32:18;;;;;;;7.93;3.80;;;16.10;99.90;;;;;;4973391;28;20184;-69
2021/08/04 05:34:44;;;;;;;3.57;3.27;;;16.00;99.90;;;;;;4973542;28;20263;-69
2021/08/04 05:37:10;;;;;;;3.40;3.13;;;16.00;99.90;;;;;;4973907;28;20204;-69
2021/08/04 05:39:35;;;;;;;3.53;3.23;;;16.10;99.90;;;;;;4972355;28;20184;-69
2021/08/04 05:42:01;;;;;;;3.33;3.03;;;16.20;99.90;;;;;;4953245;28;20366;-69
2021/08/04 05:44:26;;;;;;;3.80;3.03;;;16.30;99.90;;;;;;4973769;28;20171;-70
2021/08/04 05:46:52;;;;;;;6.90;3.67;;;16.50;99.90;;;;;;4962395;28;20263;-69
2021/08/04 05:49:18;;;;;;;4.07;3.50;;;16.40;99.90;;;;;;4966448;28;20176;-70
2021/08/04 05:51:43;;;;;;;6.40;2.97;;;16.40;99.90;;;;;;4955236;28;20575;-70
2021/08/04 05:54:09;;;;;;;5.13;3.57;;;16.40;99.90;;;;;;4954140;28;20173;-69
2021/08/04 05:56:34;;;;;;;4.20;3.03;;;16.30;99.90;;;;;;4958817;28;20599;-69
2021/08/04 05:59:00;;;;;;;11.80;9.43;;;16.30;99.90;;;;;;4955574;28;20268;-69
2021/08/04 06:01:25;;;;;;;4.67;3.23;;;16.30;99.90;;;;;;4973231;28;20218;-70
2021/08/04 06:03:51;;;;;;;5.73;3.23;;;16.50;99.90;;;;;;4973356;28;20177;-71
2021/08/04 06:06:16;;;;;;;3.87;3.43;;;16.50;99.90;;;;;;4973321;28;20256;-70
2021/08/04 06:08:42;;;;;;;4.57;3.10;;;16.70;99.90;;;;;;4972793;28;20521;-71
2021/08/04 06:11:07;;;;;;;3.20;2.70;;;16.70;99.90;;;;;;4972909;28;20215;-72
2021/08/04 06:13:33;;;;;;;9.30;3.33;;;16.70;99.90;;;;;;4972629;28;20183;-71
2021/08/04 06:15:58;;;;;;;3.00;2.80;;;16.90;99.90;;;;;;4973127;28;20176;-71
2021/08/04 06:18:24;;;;;;;3.50;3.20;;;17.00;99.90;;;;;;4973156;28;20172;-71
2021/08/04 06:20:49;;;;;;;5.80;3.93;;;17.00;99.90;;;;;;4972868;28;20295;-70
2021/08/04 06:23:15;;;;;;;3.47;3.27;;;17.20;99.90;;;;;;4970681;28;20180;-71
2021/08/04 06:25:41;;;;;;;3.00;2.80;;;17.40;99.90;;;;;;4973372;28;20187;-70
2021/08/04 06:28:06;;;;;;;2.87;2.67;;;17.60;99.90;;;;;;4973107;28;20312;-71
2021/08/04 06:30:32;;;;;;;3.50;3.20;;;17.50;99.90;;;;;;4972450;28;20560;-66
2021/08/04 06:32:57;;;;;;;2.97;2.73;;;17.50;99.90;;;;;;4971272;28;20207;-67
2021/08/04 06:35:23;;;;;;;2.60;2.30;;;17.40;99.90;;;;;;4972919;28;20172;-66
2021/08/04 06:37:48;;;;;;;3.10;2.80;;;17.50;99.90;;;;;;4973029;28;20645;-66
2021/08/04 06:40:14;;;;;;;2.97;2.70;;;17.60;99.90;;;;;;4972480;28;20214;-66
2021/08/04 06:42:40;;;;;;;6.90;6.30;;;17.50;99.90;;;;;;4975097;28;20200;-66
2021/08/04 06:45:06;;;;;;;3.33;3.03;;;17.50;99.90;;;;;;4976710;28;20650;-66
2021/08/04 06:47:32;;;;;;;6.43;2.77;;;17.40;99.90;;;;;;4976728;28;20416;-66
2021/08/04 06:49:57;;;;;;;4.77;3.80;;;17.60;99.90;;;;;;4976295;28;20507;-66
2021/08/04 06:52:23;;;;;;;3.17;2.97;;;17.70;99.90;;;;;;4976558;28;20601;-67
2021/08/04 06:54:48;;;;;;;3.17;2.83;;;17.80;99.90;;;;;;4976589;28;20664;-66
2021/08/04 06:57:14;;;;;;;3.37;3.07;;;17.90;99.90;;;;;;4968609;28;20558;-66
2021/08/04 06:59:39;;;;;;;2.83;2.63;;;18.00;99.90;;;;;;4965904;28;20660;-66
2021/08/04 07:02:05;;;;;;;2.97;2.77;;;17.90;99.90;;;;;;4976364;28;20216;-66
2021/08/04 07:04:31;;;;;;;4.53;3.40;;;18.00;99.90;;;;;;4976766;28;20211;-66
2021/08/04 07:06:59;;;;;;;3.10;2.80;;;18.20;99.90;;;;;;4976306;28;20181;-66
2021/08/04 07:09:25;;;;;;;3.13;2.80;;;18.60;99.90;;;;;;4976012;28;20419;-67
2021/08/04 07:11:50;;;;;;;6.43;2.97;;;18.90;99.90;;;;;;4975995;28;20455;-65
2021/08/04 07:14:17;;;;;;;2.83;2.63;;;19.00;99.90;;;;;;4975543;28;20427;-66
2021/08/04 07:16:43;;;;;;;3.07;2.87;;;19.20;99.90;;;;;;4976186;28;20426;-66
2021/08/04 07:19:10;;;;;;;2.40;2.20;;;19.40;99.90;;;;;;4975834;28;20428;-67
2021/08/04 07:21:36;;;;;;;3.33;3.03;;;19.70;99.90;;;;;;4975932;28;20474;-66
2021/08/04 07:24:01;;;;;;;3.10;2.77;;;20.10;99.90;;;;;;4975980;28;20411;-66
2021/08/04 07:26:27;;;;;;;3.00;2.80;;;20.60;99.90;;;;;;4975997;28;20258;-66
2021/08/04 07:28:52;;;;;;;3.40;3.17;;;21.00;99.90;;;;;;4975785;28;20172;-66
2021/08/04 07:31:18;;;;;;;3.47;3.17;;;21.50;99.90;;;;;;4976119;28;20206;-66
2021/08/04 07:33:43;;;;;;;3.43;3.13;;;21.80;99.90;;;;;;4975839;28;20553;-66
2021/08/04 07:36:12;;;;;;;3.10;2.67;;;22.20;99.90;;;;;;4975895;28;20179;-66
2021/08/04 07:38:37;;;;;;;2.23;2.03;;;22.60;99.90;;;;;;4975387;28;20183;-67
2021/08/04 07:41:04;;;;;;;2.67;2.47;;;22.60;99.90;;;;;;4975702;28;20898;-67
2021/08/04 07:43:30;;;;;;;3.00;2.70;;;22.70;99.90;;;;;;4975650;28;20188;-67
2021/08/04 07:45:55;;;;;;;4.20;2.70;;;22.60;99.90;;;;;;4975663;28;20462;-67
2021/08/04 07:48:21;;;;;;;3.50;2.70;;;22.80;99.90;;;;;;4975508;28;20643;-70
2021/08/04 07:50:47;;;;;;;2.83;2.40;;;23.10;99.90;;;;;;4975384;28;20665;-71
2021/08/04 07:53:12;;;;;;;3.50;2.70;;;23.00;99.90;;;;;;4974478;28;20194;-72
2021/08/04 07:55:38;;;;;;;2.80;2.60;;;22.60;99.90;;;;;;4975468;28;20173;-72
2021/08/04 07:58:03;;;;;;;2.90;2.70;;;22.40;99.90;;;;;;4974620;28;20688;-72
2021/08/04 08:00:29;;;;;;;2.80;2.30;;;22.30;99.90;;;;;;4974934;28;20208;-71
2021/08/04 08:02:54;;;;;;;3.07;2.83;;;22.50;99.90;;;;;;4975084;28;20259;-71
2021/08/04 08:05:20;;;;;;;2.27;2.13;;;22.60;99.90;;;;;;4975309;28;20187;-72
2021/08/04 08:07:47;;;;;;;3.27;2.73;;;22.50;99.90;;;;;;4975177;28;20183;-72
2021/08/04 08:10:13;;;;;;;1.97;1.87;;;22.50;99.90;;;;;;4974756;28;20208;-72
2021/08/04 08:12:38;;;;;;;3.30;3.00;;;22.40;99.90;;;;;;4975149;28;20415;-69
2021/08/04 08:15:04;;;;;;;2.80;2.60;;;22.30;99.90;;;;;;4974978;28;20176;-68
2021/08/04 08:17:30;;;;;;;3.77;2.73;;;22.20;99.90;;;;;;4975026;28;20176;-71
2021/08/04 08:19:55;;;;;;;2.70;2.50;;;22.10;99.90;;;;;;4975041;28;20449;-71
2021/08/04 08:22:21;;;;;;;3.00;2.80;;;22.00;99.90;;;;;;4975060;28;20518;-72
2021/08/04 08:24:47;;;;;;;3.43;2.70;;;21.90;99.90;;;;;;4974668;28;20239;-71
2021/08/04 08:27:13;;;;;;;2.90;2.70;;;21.90;99.90;;;;;;4973945;28;20178;-71
2021/08/04 08:29:38;;;;;;;2.77;2.57;;;21.80;99.90;;;;;;4974582;28;20478;-71
2021/08/04 08:32:04;;;;;;;3.30;3.00;;;21.60;99.90;;;;;;4974817;28;20196;-72
2021/08/04 08:34:29;;;;;;;3.13;2.93;;;21.50;99.90;;;;;;4975236;28;20172;-71
2021/08/04 08:36:55;;;;;;;3.07;2.73;;;21.50;99.90;;;;;;4974685;28;20195;-66
2021/08/04 08:39:20;;;;;;;4.17;2.97;;;21.10;99.90;;;;;;4974342;28;20187;-66
2021/08/04 08:41:47;;;;;;;2.70;2.50;;;21.10;99.90;;;;;;4974499;28;20298;-66
2021/08/04 08:44:13;;;;;;;2.60;2.40;;;21.10;99.90;;;;;;4974560;28;20251;-66
2021/08/04 08:46:40;;;;;;;2.70;2.50;;;20.90;99.90;;;;;;4974499;28;20972;-65
2021/08/04 08:49:07;;;;;;;2.77;2.57;;;20.90;99.90;;;;;;4974187;28;20708;-66
2021/08/04 08:51:32;;;;;;;3.77;3.00;;;21.00;99.90;;;;;;4974367;28;20448;-66
2021/08/04 08:53:59;;;;;;;3.47;3.17;;;21.30;99.90;;;;;;4974409;28;20478;-66
2021/08/04 08:56:25;;;;;;;3.53;3.23;;;21.80;99.90;;;;;;4974170;28;20231;-66
2021/08/04 08:58:53;;;;;;;3.43;2.63;;;22.30;99.90;;;;;;4973959;28;20890;-67
2021/08/04 09:01:34;;;;;;;2.97;2.77;;;22.70;99.90;;;;;;4974148;28;20735;-66
2021/08/04 09:04:02;;;;;;;3.33;2.73;;;22.80;99.90;;;;;;4973968;28;20424;-66
2021/08/04 09:07:01;;;;;;;2.90;2.70;;;23.10;99.90;;;;;;4974170;28;20419;-67
2021/08/04 09:09:29;;;;;;;3.20;3.00;;;22.90;99.90;;;;;;4951829;28;20432;-66
2021/08/04 09:11:55;;;;;;;3.03;2.83;;;23.20;99.90;;;;;;4973921;28;20467;-66
2021/08/04 09:14:42;;;;;;;3.73;2.93;;;23.60;99.90;;;;;;4974061;28;20785;-66
2021/08/04 09:17:17;;;;;;;4.07;3.67;;;24.00;99.90;;;;;;4974045;28;20419;-66
2021/08/04 09:19:46;;;;;;;2.57;2.37;;;24.50;99.90;;;;;;4973840;28;20415;-66
2021/08/04 09:22:23;;;;;;;2.60;2.40;;;24.50;99.20;;;;;;4973903;28;20467;-65
2021/08/04 09:25:08;;;;;;;2.87;2.67;;;24.60;99.90;;;;;;4973843;28;20426;-66
2021/08/04 09:27:43;;;;;;;3.50;3.23;;;24.10;99.90;;;;;;4973790;28;20498;-66
2021/08/04 09:30:18;;;;;;;3.40;2.93;;;23.70;99.90;;;;;;4972455;28;20944;-66
2021/08/04 09:32:44;;;;;;;3.90;2.77;;;23.20;99.90;;;;;;4974083;28;20494;-66
2021/08/04 09:35:15;;;;;;;2.80;2.60;;;22.90;99.90;;;;;;4973811;28;20514;-66
2021/08/04 09:37:41;;;;;;;3.13;2.70;;;22.90;99.90;;;;;;4973705;28;20218;-66
2021/08/04 09:40:09;;;;;;;3.00;2.80;;;22.80;99.90;;;;;;4973218;28;20444;-66
2021/08/04 09:42:49;;;;;;;3.23;2.60;;;22.50;99.90;;;;;;4973509;28;20416;-67
2021/08/04 09:45:19;;;;;;;3.23;2.33;;;22.10;99.90;;;;;;4973608;28;20810;-66
2021/08/04 09:48:05;;;;;;;2.73;2.40;;;21.90;99.90;;;;;;4973504;28;20420;-66
2021/08/04 09:50:51;;;;;;;2.97;2.77;;;22.00;99.90;;;;;;4973130;28;20446;-66
2021/08/04 09:53:34;;;;;;;3.60;3.30;;;22.00;99.90;;;;;;4973505;28;20415;-66
2021/08/04 09:56:05;;;;;;;2.27;2.07;;;22.00;99.90;;;;;;4973275;28;20512;-66
2021/08/04 09:58:31;;;;;;;2.93;2.73;;;22.00;99.90;;;;;;4972548;28;20424;-66
2021/08/04 10:01:00;;;;;;;4.40;2.50;;;21.80;99.90;;;;;;4973415;28;20521;-66
2021/08/04 10:03:25;;;;;;;2.60;2.40;;;21.80;99.90;;;;;;4973266;28;20172;-66
2021/08/04 10:05:51;;;;;;;2.50;2.30;;;21.60;99.90;;;;;;4973308;28;20415;-66
2021/08/04 10:08:16;;;;;;;3.60;2.30;;;21.40;99.90;;;;;;4973126;28;20653;-67
2021/08/04 10:10:50;;;;;;;4.20;2.67;;;21.20;99.90;;;;;;4973565;28;20212;-66
2021/08/04 10:13:18;;;;;;;3.70;2.87;;;21.00;99.90;;;;;;4973330;28;20172;-66
2021/08/04 10:15:50;;;;;;;4.03;3.50;;;21.10;99.90;;;;;;4972860;28;20996;-66
2021/08/04 10:18:30;;;;;;;3.23;3.00;;;21.20;99.90;;;;;;4956169;28;20427;-65
2021/08/04 10:21:05;;;;;;;4.70;3.23;;;21.50;99.90;;;;;;4973138;28;20897;-66
2021/08/04 10:23:31;;;;;;;3.43;2.70;;;21.50;99.90;;;;;;4973262;28;20465;-66
2021/08/04 10:25:58;;;;;;;4.53;2.43;;;21.70;99.90;;;;;;4973393;28;20917;-66
2021/08/04 10:28:28;;;;;;;5.30;4.90;;;22.10;99.90;;;;;;4972826;28;20442;-66
2021/08/04 10:30:56;;;;;;;3.90;3.60;;;22.50;99.90;;;;;;4973461;28;20807;-66
2021/08/04 10:33:21;;;;;;;3.80;3.50;;;22.70;99.90;;;;;;4973242;28;20586;-66
2021/08/04 10:35:53;;;;;;;3.30;3.07;;;23.10;99.90;;;;;;4972940;28;20510;-67
2021/08/04 10:38:23;;;;;;;3.17;2.97;;;23.60;99.90;;;;;;4972487;28;20195;-66
2021/08/04 10:41:16;;;;;;;3.30;3.00;;;23.60;99.90;;;;;;4972686;28;20463;-66
2021/08/04 10:43:49;;;;;;;3.00;2.80;;;23.20;99.90;;;;;;4972900;28;20407;-67
2021/08/04 10:46:30;;;;;;;2.97;2.77;;;23.10;99.90;;;;;;4972847;28;20419;-66
2021/08/04 10:49:13;;;;;;;3.37;3.07;;;23.00;99.90;;;;;;4972560;28;20408;-67
2021/08/04 10:51:59;;;;;;;3.87;2.90;;;22.90;99.90;;;;;;4973057;28;20447;-67
2021/08/04 10:54:25;;;;;;;3.30;2.87;;;22.80;99.90;;;;;;4945907;28;20452;-65
2021/08/04 10:56:50;;;;;;;2.93;2.70;;;22.90;99.90;;;;;;4941186;29;20425;-67
2021/08/04 10:59:32;;;;;;;2.53;1.90;;;23.60;99.90;;;;;;4952931;29;20185;-67
2021/08/04 11:02:03;;;;;;;2.53;2.33;;;24.00;99.90;;;;;;4953123;29;20215;-66
2021/08/04 11:04:29;;;;;;;2.73;2.53;;;23.90;99.90;;;;;;4953472;29;20417;-67
2021/08/04 11:07:16;;;;;;;3.30;3.00;;;23.50;99.90;;;;;;4953442;29;20865;-67
2021/08/04 11:09:48;;;;;;;3.13;2.93;;;23.20;99.90;;;;;;4953227;29;20582;-67
2021/08/04 11:12:17;;;;;;;3.07;2.87;;;22.50;99.90;;;;;;4953486;29;20942;-67
2021/08/04 11:14:50;;;;;;;3.37;2.60;;;22.30;99.90;;;;;;4953448;29;20466;-67
2021/08/04 11:17:22;;;;;;;2.67;2.47;;;22.10;99.90;;;;;;4953618;29;20861;-67
2021/08/04 11:19:57;;;;;;;2.53;2.40;;;22.80;99.90;;;;;;4953166;29;20423;-67
2021/08/04 11:22:25;;;;;;;2.30;2.20;;;24.00;99.90;;;;;;4955165;29;20515;-67
2021/08/04 11:24:58;;;;;;;4.40;3.40;;;25.40;98.10;;;;;;4958887;29;20428;-67
2021/08/04 11:27:26;;;;;;;4.13;3.13;;;25.30;97.80;;;;;;4958929;28;20424;-67
2021/08/04 11:29:53;;;;;;;2.97;2.77;;;26.00;96.40;;;;;;4961232;28;20977;-67
2021/08/04 11:32:27;;;;;;;2.80;2.53;;;25.90;96.50;;;;;;4961994;29;20478;-67
2021/08/04 11:34:54;;;;;;;2.03;1.93;;;26.70;95.60;;;;;;4960778;29;20431;-67
2021/08/04 11:37:20;;;;;;;2.60;2.40;;;26.40;95.60;;;;;;4957836;29;20859;-67
2021/08/04 11:39:56;;;;;;;2.93;2.73;;;26.70;94.90;;;;;;4956253;28;20475;-67
2021/08/04 11:42:22;;;;;;;3.00;2.57;;;26.10;94.50;;;;;;4956407;29;20439;-67
2021/08/04 11:44:48;;;;;;;3.80;2.33;;;26.30;95.60;;;;;;4956397;29;20484;-67
2021/08/04 11:47:14;;;;;;;2.90;2.60;;;25.90;94.80;;;;;;4956547;29;20448;-67
2021/08/04 11:49:52;;;;;;;3.00;2.30;;;25.90;94.30;;;;;;4956068;29;20448;-67
2021/08/04 11:52:22;;;;;;;2.20;1.87;;;25.60;95.20;;;;;;4956360;29;20630;-67
2021/08/04 11:54:49;;;;;;;2.33;2.17;;;25.70;94.70;;;;;;4956115;29;20460;-67
2021/08/04 11:57:36;;;;;;;2.90;2.10;;;26.20;94.30;;;;;;4956185;29;20815;-67
2021/08/04 12:00:08;;;;;;;2.07;1.87;;;26.70;93.20;;;;;;4955661;28;20456;-67
2021/08/04 12:02:35;;;;;;;3.40;3.10;;;27.10;92.90;;;;;;4956096;29;20920;-67
2021/08/04 12:05:03;;;;;;;2.33;2.13;;;27.80;92.90;;;;;;4956130;29;20482;-67
2021/08/04 12:07:30;;;;;;;2.60;2.40;;;27.50;91.00;;;;;;4955870;29;20427;-67
2021/08/04 12:09:58;;;;;;;2.10;2.00;;;27.70;92.00;;;;;;4955535;28;20428;-67
2021/08/04 12:12:33;;;;;;;5.63;2.13;;;27.10;92.00;;;;;;4955986;29;20421;-67
2021/08/04 12:14:59;;;;;;;2.30;2.10;;;26.30;91.80;;;;;;4955122;29;20446;-68
2021/08/04 12:17:32;;;;;;;2.63;2.17;;;25.40;93.60;;;;;;4954859;29;20471;-67
2021/08/04 12:20:10;;;;;;;2.70;2.50;;;25.40;93.70;;;;;;4954841;28;20635;-67
2021/08/04 12:22:35;;;;;;;2.67;2.23;;;25.80;92.80;;;;;;4955625;29;20421;-67
2021/08/04 12:25:03;;;;;;;2.33;2.13;;;26.10;92.70;;;;;;4955835;29;20519;-67
2021/08/04 12:27:47;;;;;;;2.63;2.43;;;26.40;92.80;;;;;;4954082;29;20208;-66
2021/08/04 12:30:23;;;;;;;2.57;2.10;;;26.10;92.60;;;;;;4936069;29;20461;-67
2021/08/04 12:32:59;;;;;;;2.40;1.97;;;26.10;92.40;;;;;;4936465;29;20927;-67
2021/08/04 12:36:05;;;;;;;2.43;2.23;;;26.30;92.50;;;;;;4929854;29;20435;-67
2021/08/04 12:38:23;;;;;;;3.70;2.60;;;25.70;93.10;;;;;;4953097;28;20455;-67
2021/08/04 12:40:53;;;;;;;3.50;2.30;;;24.60;93.40;;;;;;4954735;28;20503;-66
2021/08/04 12:43:22;;;;;;;2.10;2.00;;;23.80;94.70;;;;;;4955294;29;20500;-67
2021/08/04 12:45:55;;;;;;;2.87;2.70;;;23.90;95.10;;;;;;4955239;29;20467;-67
2021/08/04 12:48:36;;;;;;;5.30;2.23;;;24.30;94.70;;;;;;4955046;29;20423;-66
2021/08/04 12:51:02;;;;;;;1.83;1.73;;;24.70;94.40;;;;;;4955154;28;20950;-67
2021/08/04 12:53:33;;;;;;;1.87;1.70;;;25.00;94.10;;;;;;4937808;29;20424;-66